54PA weather

Pine Bottom Heliport
Martinsburg, Pennsylvania, United States

Public forecast

Using degrees Fahrenheit for public forecast. Weather courtesy of forecast.io.

Closest aviation weather report (METAR) to Pine Bottom Heliport

Closest report is Altoona Blair County Airport, 3.7 nm (6.8 km) N. Retrieved 2019/12/16 12:39 UTC (34 seconds ago):

KAOO 161239Z AUTO 06003KT 1 3/4SM -SN BR OVC009 M02/M04 A3015 RMK AO2 SNE16B35 P0000 T10221039

Closest aviation forecast (TAF) to Pine Bottom Heliport

Closest forecast is Altoona Blair County Airport, 3.7 nm (6.8 km) N. Retrieved 2019/12/16 12:36 UTC (4 minutes ago):

TAF KAOO 161133Z 1612/1712 00000KT 2SM -SN OVC030 FM161400 07003KT 5SM -SN OVC020 FM161600 09003KT P6SM OVC015 FM162100 09004KT 4SM -FZDZ BR OVC008 FM170000 08005KT 1SM -FZRA BR OVC003